createdAt,value
2017-07-09T00:01:54.227Z,20.40
2017-07-09T00:04:21.989Z,20.40
2017-07-09T00:06:49.759Z,20.40
2017-07-09T00:09:17.619Z,20.40
2017-07-09T00:11:45.380Z,20.40
2017-07-09T00:14:13.263Z,20.30
2017-07-09T00:16:41.134Z,20.30
2017-07-09T00:19:08.997Z,20.30
2017-07-09T00:21:36.853Z,20.20
2017-07-09T00:24:04.723Z,20.20
2017-07-09T00:26:32.597Z,20.20
2017-07-09T00:29:00.461Z,20.10
2017-07-09T00:31:28.214Z,20.00
2017-07-09T00:33:55.922Z,19.80
2017-07-09T00:36:24.495Z,19.60
2017-07-09T00:38:52.992Z,19.60
2017-07-09T00:41:20.804Z,19.60
2017-07-09T00:43:48.503Z,19.70
2017-07-09T00:46:17.050Z,19.70
2017-07-09T00:48:44.918Z,19.60
2017-07-09T00:51:12.683Z,19.60
2017-07-09T00:53:40.557Z,19.60
2017-07-09T00:56:08.312Z,19.60
2017-07-09T00:58:36.086Z,19.60
2017-07-09T01:01:03.959Z,19.50
2017-07-09T01:03:31.827Z,19.40
2017-07-09T01:05:59.581Z,19.30
2017-07-09T01:08:27.375Z,19.20
2017-07-09T01:10:55.844Z,19.00
2017-07-09T01:13:23.584Z,19.00
2017-07-09T01:15:51.454Z,19.00
2017-07-09T01:18:19.147Z,18.90
2017-07-09T01:20:47.703Z,19.10
2017-07-09T01:23:15.562Z,19.00
2017-07-09T01:25:43.327Z,19.10
2017-07-09T01:28:10.987Z,19.20
2017-07-09T01:30:38.781Z,19.10
2017-07-09T01:33:06.420Z,19.00
2017-07-09T01:35:34.056Z,18.90
2017-07-09T01:38:01.733Z,18.90
2017-07-09T01:40:29.402Z,18.80
2017-07-09T01:42:57.166Z,18.70
2017-07-09T01:45:24.930Z,18.60
2017-07-09T01:47:52.620Z,18.50
2017-07-09T01:50:20.459Z,18.40
2017-07-09T01:52:48.222Z,18.40
2017-07-09T01:55:15.987Z,18.40
2017-07-09T01:57:43.853Z,18.40
2017-07-09T02:00:11.536Z,18.30
2017-07-09T02:02:39.168Z,18.30
2017-07-09T02:05:06.831Z,18.20
2017-07-09T02:07:34.602Z,18.20
2017-07-09T02:10:02.369Z,18.10
2017-07-09T02:12:30.154Z,18.10
2017-07-09T02:14:57.817Z,18.00
2017-07-09T02:17:25.559Z,18.00
2017-07-09T02:19:53.232Z,18.00
2017-07-09T02:22:20.899Z,18.00
2017-07-09T02:24:48.565Z,18.00
2017-07-09T02:27:16.323Z,18.10
2017-07-09T02:29:44.070Z,18.20
2017-07-09T02:32:11.937Z,18.30
2017-07-09T02:34:39.625Z,18.30
2017-07-09T02:37:07.364Z,18.30
2017-07-09T02:39:35.234Z,18.30
2017-07-09T02:42:02.995Z,18.40
2017-07-09T02:44:30.659Z,18.30
2017-07-09T02:46:58.320Z,18.30
2017-07-09T02:49:26.080Z,18.20
2017-07-09T02:51:53.740Z,18.10
2017-07-09T02:54:21.371Z,18.10
2017-07-09T02:56:49.171Z,18.10
2017-07-09T02:59:16.933Z,18.10
2017-07-09T03:01:44.700Z,17.90
2017-07-09T03:04:12.465Z,17.80
2017-07-09T03:06:40.149Z,17.70
2017-07-09T03:09:07.993Z,17.60
2017-07-09T03:11:35.687Z,17.50
2017-07-09T03:14:04.239Z,17.50
2017-07-09T03:16:32.003Z,17.50
2017-07-09T03:18:59.657Z,17.50
2017-07-09T03:21:27.428Z,17.50
2017-07-09T03:23:55.116Z,17.60
2017-07-09T03:26:22.956Z,17.60
2017-07-09T03:28:50.723Z,17.70
2017-07-09T03:31:18.588Z,17.70
2017-07-09T03:33:46.353Z,17.70
2017-07-09T03:36:14.117Z,17.70
2017-07-09T03:38:41.780Z,17.70
2017-07-09T03:41:09.459Z,17.70
2017-07-09T03:43:37.307Z,17.70
2017-07-09T03:46:05.073Z,17.70
2017-07-09T03:48:32.730Z,17.70
2017-07-09T03:51:00.498Z,17.70
2017-07-09T03:53:28.122Z,17.70
2017-07-09T03:55:55.922Z,17.60
2017-07-09T03:58:23.685Z,17.50
2017-07-09T04:00:51.555Z,17.50
2017-07-09T04:03:19.320Z,17.50
2017-07-09T04:05:47.083Z,17.50
2017-07-09T04:08:14.847Z,17.60
2017-07-09T04:10:42.613Z,17.50
2017-07-09T04:13:10.284Z,17.40
2017-07-09T04:15:38.038Z,17.40
2017-07-09T04:18:05.902Z,17.30
2017-07-09T04:20:33.668Z,17.30
2017-07-09T04:23:01.432Z,17.40
2017-07-09T04:25:29.101Z,17.50
2017-07-09T04:27:56.726Z,17.60
2017-07-09T04:30:24.452Z,17.60
2017-07-09T04:32:52.915Z,17.70
2017-07-09T04:35:20.746Z,17.60
2017-07-09T04:37:48.453Z,17.70
2017-07-09T04:40:16.189Z,17.70
2017-07-09T04:42:43.958Z,17.70
2017-07-09T04:45:11.721Z,17.70
2017-07-09T04:47:39.486Z,17.80
2017-07-09T04:50:07.248Z,17.80
2017-07-09T04:52:34.931Z,17.90
2017-07-09T04:55:02.674Z,17.90
2017-07-09T04:57:30.303Z,17.90
2017-07-09T04:59:58.001Z,18.00
2017-07-09T05:02:25.761Z,18.00
2017-07-09T05:04:53.449Z,18.00
2017-07-09T05:07:21.190Z,18.20
2017-07-09T05:09:48.977Z,18.20
2017-07-09T05:12:16.714Z,18.30
2017-07-09T05:14:44.395Z,18.30
2017-07-09T05:17:12.174Z,18.30
2017-07-09T05:19:40.009Z,18.30
2017-07-09T05:22:07.771Z,18.40
2017-07-09T05:24:35.536Z,18.40
2017-07-09T05:27:03.405Z,18.50
2017-07-09T05:29:31.172Z,18.60
2017-07-09T05:31:58.808Z,18.60
2017-07-09T05:34:26.517Z,18.70
2017-07-09T05:36:54.147Z,18.80
2017-07-09T05:39:21.922Z,18.80
2017-07-09T05:41:49.680Z,18.80
2017-07-09T05:44:17.445Z,18.90
2017-07-09T05:46:45.211Z,19.00
2017-07-09T05:49:12.980Z,19.10
2017-07-09T05:51:40.661Z,19.10
2017-07-09T05:54:08.399Z,19.10
2017-07-09T05:56:36.164Z,19.20
2017-07-09T05:59:03.790Z,19.30
2017-07-09T06:01:31.593Z,19.30
2017-07-09T06:03:59.357Z,19.40
2017-07-09T06:06:27.121Z,19.40
2017-07-09T06:08:54.884Z,19.50
2017-07-09T06:11:22.567Z,19.50
2017-07-09T06:13:50.417Z,19.60
2017-07-09T06:16:18.047Z,19.70
2017-07-09T06:18:45.708Z,19.80
2017-07-09T06:21:13.500Z,19.90
2017-07-09T06:23:41.264Z,19.90
2017-07-09T06:26:09.032Z,19.90
2017-07-09T06:28:36.723Z,20.00
2017-07-09T06:31:05.275Z,20.20
2017-07-09T06:33:33.368Z,20.20
2017-07-09T06:36:01.217Z,20.30
2017-07-09T06:38:28.847Z,20.40
2017-07-09T06:40:56.569Z,20.50
2017-07-09T06:43:25.006Z,20.80
2017-07-09T06:45:52.696Z,20.80
2017-07-09T06:48:20.545Z,20.90
2017-07-09T06:50:48.229Z,21.00
2017-07-09T06:53:16.074Z,21.10
2017-07-09T06:55:43.756Z,21.20
2017-07-09T06:58:11.499Z,21.30
2017-07-09T07:00:39.181Z,21.40
2017-07-09T07:03:06.928Z,21.40
2017-07-09T07:05:34.596Z,21.50
2017-07-09T07:08:02.272Z,21.60
2017-07-09T07:10:29.902Z,21.60
2017-07-09T07:12:57.565Z,21.80
2017-07-09T07:15:25.266Z,21.90
2017-07-09T07:17:53.054Z,22.00
2017-07-09T07:20:20.875Z,22.10
2017-07-09T07:22:48.713Z,22.10
2017-07-09T07:25:16.395Z,22.10
2017-07-09T07:27:44.268Z,22.20
2017-07-09T07:30:12.043Z,22.20
2017-07-09T07:32:39.905Z,22.30
2017-07-09T07:35:07.773Z,22.40
2017-07-09T07:37:35.566Z,22.60
2017-07-09T07:40:04.230Z,22.70
2017-07-09T07:42:31.975Z,22.70
2017-07-09T07:44:59.841Z,22.80
2017-07-09T07:47:27.578Z,22.80
2017-07-09T07:49:55.385Z,22.90
2017-07-09T07:52:23.251Z,23.10
2017-07-09T07:54:51.056Z,23.20
2017-07-09T07:57:18.999Z,23.40
2017-07-09T07:59:47.659Z,23.60
2017-07-09T08:02:15.543Z,23.60
2017-07-09T08:04:43.283Z,23.70
2017-07-09T08:07:11.171Z,23.80
2017-07-09T08:09:39.040Z,23.90
2017-07-09T08:12:06.905Z,23.90
2017-07-09T08:14:34.768Z,23.90
2017-07-09T08:17:02.739Z,24.00
2017-07-09T08:19:30.605Z,24.00
2017-07-09T08:21:58.476Z,24.10
2017-07-09T08:24:26.291Z,24.20
2017-07-09T08:26:54.187Z,24.20
2017-07-09T08:29:22.007Z,24.30
2017-07-09T08:31:49.823Z,24.50
2017-07-09T08:34:17.688Z,24.70
2017-07-09T08:36:45.447Z,24.90
2017-07-09T08:39:13.330Z,25.00
2017-07-09T08:41:41.200Z,25.10
2017-07-09T08:44:09.033Z,25.20
2017-07-09T08:46:36.936Z,25.20
2017-07-09T08:49:04.800Z,25.20
2017-07-09T08:51:32.662Z,25.20
2017-07-09T08:54:00.459Z,25.20
2017-07-09T08:56:28.923Z,25.10
2017-07-09T08:58:57.533Z,25.10
2017-07-09T09:01:25.325Z,25.00
2017-07-09T09:03:53.230Z,25.10
2017-07-09T09:06:21.093Z,25.10
2017-07-09T09:08:48.951Z,25.10
2017-07-09T09:11:16.813Z,25.10
2017-07-09T09:13:44.575Z,25.20
2017-07-09T09:16:12.445Z,25.30
2017-07-09T09:18:40.310Z,25.50
2017-07-09T09:21:08.172Z,25.70
2017-07-09T09:23:35.949Z,25.90
2017-07-09T09:26:03.818Z,26.20
2017-07-09T09:28:31.690Z,26.40
2017-07-09T09:30:59.656Z,26.50
2017-07-09T09:33:27.495Z,26.60
2017-07-09T09:35:55.396Z,26.70
2017-07-09T09:38:23.264Z,26.90
2017-07-09T09:40:51.192Z,27.10
2017-07-09T09:43:19.100Z,27.10
2017-07-09T09:45:47.977Z,27.20
2017-07-09T09:48:16.509Z,27.20
2017-07-09T09:50:44.776Z,27.10
2017-07-09T09:53:12.922Z,27.20
2017-07-09T09:55:40.782Z,27.30
2017-07-09T09:58:08.551Z,27.30
2017-07-09T10:00:37.113Z,27.40
2017-07-09T10:03:04.987Z,27.40
2017-07-09T10:05:32.786Z,27.50
2017-07-09T10:08:01.441Z,27.70
2017-07-09T10:10:29.280Z,27.70
2017-07-09T10:12:56.982Z,27.80
2017-07-09T10:15:24.824Z,27.90
2017-07-09T10:17:52.538Z,28.10
2017-07-09T10:20:20.378Z,28.10
2017-07-09T10:22:48.140Z,28.20
2017-07-09T10:25:15.902Z,28.30
2017-07-09T10:27:43.772Z,28.30
2017-07-09T10:30:11.618Z,28.40
2017-07-09T10:32:39.438Z,28.50
2017-07-09T10:35:07.142Z,28.60
2017-07-09T10:37:35.024Z,28.80
2017-07-09T10:40:02.893Z,28.90
2017-07-09T10:42:30.761Z,29.00
2017-07-09T10:44:58.550Z,29.20
2017-07-09T10:47:26.392Z,29.30
2017-07-09T10:49:54.253Z,29.40
2017-07-09T10:52:22.122Z,29.60
2017-07-09T10:54:49.917Z,29.70
2017-07-09T10:57:17.695Z,29.80
2017-07-09T10:59:45.448Z,29.80
2017-07-09T11:02:13.174Z,29.80
2017-07-09T11:04:41.051Z,29.80
2017-07-09T11:07:08.921Z,29.90
2017-07-09T11:09:36.785Z,29.90
2017-07-09T11:12:04.653Z,29.90
2017-07-09T11:14:32.522Z,29.90
2017-07-09T11:17:00.295Z,29.90
2017-07-09T11:19:28.778Z,30.10
2017-07-09T11:21:57.261Z,30.20
2017-07-09T11:24:25.043Z,30.10
2017-07-09T11:26:52.855Z,30.30
2017-07-09T11:29:20.745Z,30.50
2017-07-09T11:31:48.589Z,30.50
2017-07-09T11:34:16.354Z,30.50
2017-07-09T11:36:44.221Z,30.50
2017-07-09T11:39:11.996Z,30.60
2017-07-09T11:41:39.742Z,30.60
2017-07-09T11:44:07.513Z,30.60
2017-07-09T11:46:35.384Z,30.60
2017-07-09T11:49:03.141Z,30.70
2017-07-09T11:51:30.997Z,30.70
2017-07-09T11:53:58.897Z,30.90
2017-07-09T11:56:26.687Z,31.00
2017-07-09T11:58:55.446Z,31.10
2017-07-09T12:01:23.316Z,31.10
2017-07-09T12:03:51.176Z,31.20
2017-07-09T12:06:21.011Z,31.20
2017-07-09T12:08:48.811Z,31.30
2017-07-09T12:11:16.441Z,31.40
2017-07-09T12:13:44.899Z,31.60
2017-07-09T12:16:12.647Z,31.60
2017-07-09T12:18:40.305Z,31.70
2017-07-09T12:21:08.072Z,31.80
2017-07-09T12:23:35.717Z,31.90
2017-07-09T12:26:03.496Z,32.00
2017-07-09T12:28:31.261Z,32.10
2017-07-09T12:30:59.028Z,32.20
2017-07-09T12:33:26.711Z,32.20
2017-07-09T12:35:54.454Z,32.20
2017-07-09T12:38:24.517Z,32.20
2017-07-09T12:40:54.739Z,32.20
2017-07-09T12:43:24.509Z,32.30
2017-07-09T12:45:55.308Z,32.30
2017-07-09T12:48:25.724Z,32.20
2017-07-09T12:50:53.633Z,32.30
2017-07-09T12:53:21.317Z,32.30
2017-07-09T12:55:48.984Z,32.30
2017-07-09T12:58:16.720Z,32.40
2017-07-09T13:00:44.587Z,32.40
2017-07-09T13:03:12.267Z,32.50
2017-07-09T13:05:40.015Z,32.50
2017-07-09T13:08:07.675Z,32.60
2017-07-09T13:10:35.498Z,32.70
2017-07-09T13:13:04.024Z,32.80
2017-07-09T13:15:31.745Z,32.70
2017-07-09T13:17:59.552Z,32.80
2017-07-09T13:20:27.249Z,32.80
2017-07-09T13:22:55.797Z,32.90
2017-07-09T13:25:23.973Z,32.80
2017-07-09T13:27:51.671Z,32.90
2017-07-09T13:30:20.219Z,33.10
2017-07-09T13:32:47.982Z,33.10
2017-07-09T13:35:16.589Z,33.20
2017-07-09T13:37:44.242Z,33.30
2017-07-09T13:40:12.912Z,33.40
2017-07-09T13:42:40.780Z,33.40
2017-07-09T13:45:08.438Z,33.50
2017-07-09T13:47:36.206Z,33.50
2017-07-09T13:50:03.967Z,33.60
2017-07-09T13:52:31.653Z,33.60
2017-07-09T13:54:59.395Z,33.50
2017-07-09T13:57:27.027Z,33.60
2017-07-09T13:59:54.735Z,33.60
2017-07-09T14:02:22.482Z,33.60
2017-07-09T14:04:50.349Z,33.60
2017-07-09T14:07:18.113Z,33.60
2017-07-09T14:09:45.983Z,33.70
2017-07-09T14:12:13.663Z,33.60
2017-07-09T14:14:41.300Z,33.60
2017-07-09T14:17:09.068Z,33.60
2017-07-09T14:19:36.936Z,33.60
2017-07-09T14:22:04.817Z,33.60
2017-07-09T14:24:32.692Z,33.60
2017-07-09T14:27:00.654Z,33.50
2017-07-09T14:29:28.457Z,33.50
2017-07-09T14:31:56.382Z,33.40
2017-07-09T14:34:24.253Z,33.40
2017-07-09T14:36:52.133Z,33.40
2017-07-09T14:39:20.092Z,33.40
2017-07-09T14:41:47.959Z,33.40
2017-07-09T14:44:15.932Z,33.40
2017-07-09T14:46:43.793Z,33.30
2017-07-09T14:49:11.660Z,33.30
2017-07-09T14:51:39.624Z,33.20
2017-07-09T14:54:07.497Z,33.20
2017-07-09T14:56:35.464Z,33.20
2017-07-09T14:59:03.325Z,33.20
2017-07-09T15:01:31.307Z,33.20
2017-07-09T15:03:59.164Z,33.10
2017-07-09T15:06:27.033Z,33.10
2017-07-09T15:08:54.899Z,33.10
2017-07-09T15:11:22.744Z,33.10
2017-07-09T15:13:50.511Z,33.20
2017-07-09T15:16:18.275Z,33.20
2017-07-09T15:18:46.144Z,33.20
2017-07-09T15:21:13.906Z,33.20
2017-07-09T15:23:41.674Z,33.10
2017-07-09T15:26:09.434Z,33.00
2017-07-09T15:28:37.121Z,33.00
2017-07-09T15:31:04.961Z,33.00
2017-07-09T15:33:32.599Z,32.90
2017-07-09T15:36:00.388Z,32.80
2017-07-09T15:38:28.152Z,32.80
2017-07-09T15:40:55.837Z,32.80
2017-07-09T15:43:23.579Z,32.70
2017-07-09T15:45:51.349Z,32.60
2017-07-09T15:48:19.211Z,32.60
2017-07-09T15:50:46.983Z,32.50
2017-07-09T15:53:14.843Z,32.50
2017-07-09T15:55:42.475Z,32.30
2017-07-09T15:58:10.266Z,32.30
2017-07-09T16:00:37.958Z,32.10
2017-07-09T16:03:05.796Z,32.00
2017-07-09T16:05:33.475Z,31.80
2017-07-09T16:08:01.962Z,31.80
2017-07-09T16:10:29.804Z,31.60
2017-07-09T16:12:57.474Z,31.40
2017-07-09T16:15:25.333Z,31.40
2017-07-09T16:17:53.097Z,31.30
2017-07-09T16:20:20.797Z,31.20
2017-07-09T16:22:48.629Z,31.10
2017-07-09T16:25:16.303Z,31.10
2017-07-09T16:27:43.980Z,31.10
2017-07-09T16:30:11.713Z,31.10
2017-07-09T16:32:39.375Z,31.00
2017-07-09T16:35:07.060Z,30.80
2017-07-09T16:37:34.804Z,30.70
2017-07-09T16:40:02.570Z,30.50
2017-07-09T16:42:30.330Z,30.40
2017-07-09T16:44:58.091Z,30.30
2017-07-09T16:47:25.771Z,30.30
2017-07-09T16:49:53.519Z,30.30
2017-07-09T16:52:21.285Z,30.10
2017-07-09T16:54:48.963Z,30.00
2017-07-09T16:57:16.810Z,29.90
2017-07-09T16:59:44.575Z,29.90
2017-07-09T17:02:12.342Z,29.80
2017-07-09T17:04:40.029Z,29.70
2017-07-09T17:07:07.764Z,29.70
2017-07-09T17:09:35.530Z,29.50
2017-07-09T17:12:03.292Z,29.50
2017-07-09T17:14:30.980Z,29.30
2017-07-09T17:16:58.646Z,29.20
2017-07-09T17:19:26.404Z,29.00
2017-07-09T17:21:54.147Z,28.90
2017-07-09T17:24:22.035Z,28.80
2017-07-09T17:26:50.001Z,28.60
2017-07-09T17:29:17.872Z,28.60
2017-07-09T17:31:45.832Z,28.50
2017-07-09T17:34:13.704Z,28.40
2017-07-09T17:36:41.572Z,28.30
2017-07-09T17:39:09.541Z,28.20
2017-07-09T17:41:37.505Z,28.00
2017-07-09T17:44:05.487Z,27.80
2017-07-09T17:46:33.344Z,27.70
2017-07-09T17:49:01.315Z,27.70
2017-07-09T17:51:29.071Z,27.70
2017-07-09T17:53:56.936Z,27.70
2017-07-09T17:56:24.792Z,27.60
2017-07-09T17:58:52.559Z,27.50
2017-07-09T18:01:21.009Z,27.40
2017-07-09T18:03:48.906Z,27.30
2017-07-09T18:06:18.435Z,27.20
2017-07-09T18:08:46.862Z,27.10
2017-07-09T18:11:14.758Z,27.20
2017-07-09T18:13:42.743Z,27.10
2017-07-09T18:16:10.489Z,27.00
2017-07-09T18:18:38.301Z,26.90
2017-07-09T18:21:06.686Z,26.90
2017-07-09T18:23:34.496Z,26.80
2017-07-09T18:26:02.262Z,26.90
2017-07-09T18:28:30.028Z,26.90
2017-07-09T18:30:57.712Z,26.80
2017-07-09T18:33:25.454Z,26.80
2017-07-09T18:35:53.321Z,26.80
2017-07-09T18:38:21.092Z,26.80
2017-07-09T18:40:48.849Z,26.70
2017-07-09T18:43:16.535Z,26.60
2017-07-09T18:45:44.274Z,26.60
2017-07-09T18:48:12.143Z,26.70
2017-07-09T18:50:39.904Z,26.60
2017-07-09T18:53:07.572Z,26.60
2017-07-09T18:55:35.203Z,26.60
2017-07-09T18:58:02.994Z,26.60
2017-07-09T19:00:30.862Z,26.60
2017-07-09T19:02:58.631Z,26.60
2017-07-09T19:05:26.389Z,26.60
2017-07-09T19:07:54.152Z,26.50
2017-07-09T19:10:22.019Z,26.50
2017-07-09T19:12:49.705Z,26.40
2017-07-09T19:15:17.336Z,26.40
2017-07-09T19:17:45.028Z,26.30
2017-07-09T19:20:12.688Z,26.30
2017-07-09T19:22:40.537Z,26.20
2017-07-09T19:25:08.299Z,26.10
2017-07-09T19:27:36.166Z,26.20
2017-07-09T19:30:03.934Z,26.20
2017-07-09T19:32:31.697Z,26.20
2017-07-09T19:34:59.458Z,26.10
2017-07-09T19:37:27.100Z,26.20
2017-07-09T19:39:54.884Z,26.20
2017-07-09T19:42:22.650Z,26.10
2017-07-09T19:44:50.515Z,26.10
2017-07-09T19:47:18.143Z,26.10
2017-07-09T19:49:45.942Z,26.10
2017-07-09T19:52:13.705Z,26.00
2017-07-09T19:54:41.339Z,26.00
2017-07-09T19:57:09.047Z,26.00
2017-07-09T19:59:36.796Z,25.90
2017-07-09T20:02:04.659Z,25.90
2017-07-09T20:04:32.349Z,25.90
2017-07-09T20:07:00.086Z,25.80
2017-07-09T20:09:27.783Z,25.70
2017-07-09T20:11:56.179Z,25.60
2017-07-09T20:14:24.712Z,25.60
2017-07-09T20:16:52.587Z,25.60
2017-07-09T20:19:20.255Z,25.50
2017-07-09T20:21:48.105Z,25.50
2017-07-09T20:24:15.872Z,25.50
2017-07-09T20:26:43.736Z,25.50
2017-07-09T20:29:11.424Z,25.40
2017-07-09T20:31:39.160Z,25.30
2017-07-09T20:34:06.949Z,25.30
2017-07-09T20:36:34.690Z,25.20
2017-07-09T20:39:02.455Z,25.10
2017-07-09T20:41:30.220Z,25.10
2017-07-09T20:43:57.862Z,25.00
2017-07-09T20:46:25.565Z,24.90
2017-07-09T20:48:53.306Z,24.90
2017-07-09T20:51:20.980Z,24.80
2017-07-09T20:53:48.648Z,24.70
2017-07-09T20:56:16.395Z,24.60
2017-07-09T20:58:44.081Z,24.50
2017-07-09T21:01:11.819Z,24.40
2017-07-09T21:03:39.689Z,24.40
2017-07-09T21:06:07.450Z,24.30
2017-07-09T21:08:35.216Z,24.20
2017-07-09T21:11:02.980Z,24.20
2017-07-09T21:13:30.745Z,24.10
2017-07-09T21:15:58.510Z,24.10
2017-07-09T21:18:27.006Z,24.00
2017-07-09T21:20:54.874Z,23.90
2017-07-09T21:23:22.745Z,23.80
2017-07-09T21:25:50.487Z,23.80
2017-07-09T21:28:18.285Z,23.70
2017-07-09T21:30:46.836Z,23.60
2017-07-09T21:33:14.701Z,23.60
2017-07-09T21:35:42.467Z,23.60
2017-07-09T21:38:10.174Z,23.60
2017-07-09T21:40:38.570Z,23.60
2017-07-09T21:43:06.303Z,23.50
2017-07-09T21:45:34.855Z,23.50
2017-07-09T21:48:02.532Z,23.40
2017-07-09T21:50:30.381Z,23.30
2017-07-09T21:52:58.039Z,23.30
2017-07-09T21:55:25.944Z,23.20
2017-07-09T21:57:54.390Z,23.20
2017-07-09T22:00:22.160Z,23.20
2017-07-09T22:02:50.024Z,23.20
2017-07-09T22:05:17.655Z,23.20
2017-07-09T22:07:45.363Z,23.10
2017-07-09T22:10:13.114Z,23.00
2017-07-09T22:12:40.790Z,22.90
2017-07-09T22:15:08.641Z,22.90
2017-07-09T22:17:36.301Z,22.90
2017-07-09T22:22:35.822Z,22.80
2017-07-09T22:25:03.507Z,22.80
2017-07-09T22:27:31.455Z,22.60
2017-07-09T22:29:59.222Z,22.60
2017-07-09T22:32:27.017Z,22.60
2017-07-09T22:34:55.489Z,22.60
2017-07-09T22:37:23.119Z,22.50
2017-07-09T22:39:50.889Z,22.60
2017-07-09T22:42:18.561Z,22.60
2017-07-09T22:44:46.341Z,22.60
2017-07-09T22:47:14.081Z,22.70
2017-07-09T22:49:41.950Z,22.70
2017-07-09T22:52:09.712Z,22.70
2017-07-09T22:54:37.681Z,22.70
2017-07-09T22:57:06.268Z,22.70
2017-07-09T22:59:34.134Z,22.60
2017-07-09T23:02:02.716Z,22.70
2017-07-09T23:04:30.400Z,22.60
2017-07-09T23:06:58.142Z,22.60
2017-07-09T23:09:25.909Z,22.70
2017-07-09T23:11:53.669Z,22.60
2017-07-09T23:14:21.347Z,22.60
2017-07-09T23:16:49.095Z,22.50
2017-07-09T23:19:16.861Z,22.50
2017-07-09T23:21:44.623Z,22.50
2017-07-09T23:24:12.390Z,22.50
2017-07-09T23:26:40.067Z,22.50
2017-07-09T23:29:07.817Z,22.40
2017-07-09T23:31:35.581Z,22.40
2017-07-09T23:34:03.364Z,22.40
2017-07-09T23:36:31.212Z,22.30
2017-07-09T23:38:58.884Z,22.30
2017-07-09T23:41:26.520Z,22.20
2017-07-09T23:43:54.413Z,22.20
2017-07-09T23:46:22.164Z,22.20
2017-07-09T23:48:49.931Z,22.10
2017-07-09T23:51:17.798Z,22.00
2017-07-09T23:53:45.573Z,22.00
2017-07-09T23:56:13.427Z,22.00
2017-07-09T23:58:41.071Z,21.90
